sensor_id;sensor_type;location;lat;lon;timestamp;P1;durP1;ratioP1;P2;durP2;ratioP2
73113;SDS011;61301;51.956;5.876;2023-05-07T00:00:22;2.40;;;2.00;;
73113;SDS011;61301;51.956;5.876;2023-05-07T00:02:48;2.55;;;1.83;;
73113;SDS011;61301;51.956;5.876;2023-05-07T00:05:14;3.70;;;3.08;;
73113;SDS011;61301;51.956;5.876;2023-05-07T00:07:40;7.88;;;3.58;;
73113;SDS011;61301;51.956;5.876;2023-05-07T00:10:09;3.83;;;3.08;;
73113;SDS011;61301;51.956;5.876;2023-05-07T00:12:36;4.78;;;3.15;;
73113;SDS011;61301;51.956;5.876;2023-05-07T00:15:02;3.05;;;2.30;;
73113;SDS011;61301;51.956;5.876;2023-05-07T00:17:29;3.58;;;2.85;;
73113;SDS011;61301;51.956;5.876;2023-05-07T00:19:55;3.40;;;2.45;;
73113;SDS011;61301;51.956;5.876;2023-05-07T00:22:21;3.10;;;1.77;;
73113;SDS011;61301;51.956;5.876;2023-05-07T00:24:47;1.88;;;1.40;;
73113;SDS011;61301;51.956;5.876;2023-05-07T00:27:13;1.73;;;1.63;;
73113;SDS011;61301;51.956;5.876;2023-05-07T00:29:39;3.55;;;2.20;;
73113;SDS011;61301;51.956;5.876;2023-05-07T00:32:05;3.67;;;2.20;;
73113;SDS011;61301;51.956;5.876;2023-05-07T00:34:31;3.55;;;2.60;;
73113;SDS011;61301;51.956;5.876;2023-05-07T00:36:57;1.85;;;1.33;;
73113;SDS011;61301;51.956;5.876;2023-05-07T00:39:23;2.25;;;2.05;;
73113;SDS011;61301;51.956;5.876;2023-05-07T00:41:49;3.50;;;2.40;;
73113;SDS011;61301;51.956;5.876;2023-05-07T00:44:16;3.03;;;1.80;;
73113;SDS011;61301;51.956;5.876;2023-05-07T00:46:43;3.65;;;2.20;;
73113;SDS011;61301;51.956;5.876;2023-05-07T00:49:10;4.00;;;3.35;;
73113;SDS011;61301;51.956;5.876;2023-05-07T00:51:37;5.32;;;3.30;;
73113;SDS011;61301;51.956;5.876;2023-05-07T00:54:03;4.88;;;3.30;;
73113;SDS011;61301;51.956;5.876;2023-05-07T00:56:29;3.13;;;2.22;;
73113;SDS011;61301;51.956;5.876;2023-05-07T00:58:55;3.53;;;2.80;;
73113;SDS011;61301;51.956;5.876;2023-05-07T01:01:21;2.85;;;2.40;;
73113;SDS011;61301;51.956;5.876;2023-05-07T01:03:48;3.92;;;2.65;;
73113;SDS011;61301;51.956;5.876;2023-05-07T01:06:14;3.80;;;2.53;;
73113;SDS011;61301;51.956;5.876;2023-05-07T01:08:42;2.95;;;2.33;;
73113;SDS011;61301;51.956;5.876;2023-05-07T01:11:08;2.17;;;1.98;;
73113;SDS011;61301;51.956;5.876;2023-05-07T01:13:35;3.00;;;1.70;;
73113;SDS011;61301;51.956;5.876;2023-05-07T01:16:03;1.83;;;1.58;;
73113;SDS011;61301;51.956;5.876;2023-05-07T01:18:29;2.40;;;2.20;;
73113;SDS011;61301;51.956;5.876;2023-05-07T01:20:56;2.50;;;1.92;;
73113;SDS011;61301;51.956;5.876;2023-05-07T01:23:25;4.45;;;3.25;;
73113;SDS011;61301;51.956;5.876;2023-05-07T01:25:52;4.00;;;2.78;;
73113;SDS011;61301;51.956;5.876;2023-05-07T01:28:21;3.55;;;2.00;;
73113;SDS011;61301;51.956;5.876;2023-05-07T01:31:00;2.33;;;2.00;;
73113;SDS011;61301;51.956;5.876;2023-05-07T01:33:27;3.13;;;2.63;;
73113;SDS011;61301;51.956;5.876;2023-05-07T01:35:57;2.95;;;2.65;;
73113;SDS011;61301;51.956;5.876;2023-05-07T01:38:26;3.85;;;2.13;;
73113;SDS011;61301;51.956;5.876;2023-05-07T01:40:53;3.38;;;2.67;;
73113;SDS011;61301;51.956;5.876;2023-05-07T01:43:19;4.03;;;2.75;;
73113;SDS011;61301;51.956;5.876;2023-05-07T01:45:45;3.10;;;2.53;;
73113;SDS011;61301;51.956;5.876;2023-05-07T01:48:12;4.32;;;3.55;;
73113;SDS011;61301;51.956;5.876;2023-05-07T01:50:39;5.05;;;3.50;;
73113;SDS011;61301;51.956;5.876;2023-05-07T01:53:10;4.00;;;2.90;;
73113;SDS011;61301;51.956;5.876;2023-05-07T01:55:36;4.38;;;2.90;;
73113;SDS011;61301;51.956;5.876;2023-05-07T01:58:06;3.83;;;2.10;;
73113;SDS011;61301;51.956;5.876;2023-05-07T02:00:32;3.05;;;2.13;;
73113;SDS011;61301;51.956;5.876;2023-05-07T02:02:58;3.95;;;2.83;;
73113;SDS011;61301;51.956;5.876;2023-05-07T02:05:38;3.38;;;2.50;;
73113;SDS011;61301;51.956;5.876;2023-05-07T02:08:12;5.65;;;3.58;;
73113;SDS011;61301;51.956;5.876;2023-05-07T02:10:38;3.85;;;3.42;;
73113;SDS011;61301;51.956;5.876;2023-05-07T02:13:06;3.72;;;3.33;;
73113;SDS011;61301;51.956;5.876;2023-05-07T02:15:32;5.68;;;4.15;;
73113;SDS011;61301;51.956;5.876;2023-05-07T02:18:07;5.60;;;3.95;;
73113;SDS011;61301;51.956;5.876;2023-05-07T02:20:35;5.43;;;4.78;;
73113;SDS011;61301;51.956;5.876;2023-05-07T02:23:01;5.90;;;4.88;;
73113;SDS011;61301;51.956;5.876;2023-05-07T02:25:29;5.10;;;4.60;;
73113;SDS011;61301;51.956;5.876;2023-05-07T02:27:55;5.18;;;4.68;;
73113;SDS011;61301;51.956;5.876;2023-05-07T02:30:29;6.75;;;5.65;;
73113;SDS011;61301;51.956;5.876;2023-05-07T02:32:57;8.02;;;6.13;;
73113;SDS011;61301;51.956;5.876;2023-05-07T02:35:26;6.70;;;5.82;;
73113;SDS011;61301;51.956;5.876;2023-05-07T02:37:53;7.75;;;6.25;;
73113;SDS011;61301;51.956;5.876;2023-05-07T02:40:19;7.53;;;5.65;;
73113;SDS011;61301;51.956;5.876;2023-05-07T02:42:45;6.32;;;5.28;;
73113;SDS011;61301;51.956;5.876;2023-05-07T02:45:11;6.80;;;6.07;;
73113;SDS011;61301;51.956;5.876;2023-05-07T02:47:38;4.78;;;4.18;;
73113;SDS011;61301;51.956;5.876;2023-05-07T02:50:04;3.83;;;3.42;;
73113;SDS011;61301;51.956;5.876;2023-05-07T02:52:31;4.60;;;4.20;;
73113;SDS011;61301;51.956;5.876;2023-05-07T02:54:57;6.03;;;5.32;;
73113;SDS011;61301;51.956;5.876;2023-05-07T02:57:23;6.55;;;5.47;;
73113;SDS011;61301;51.956;5.876;2023-05-07T02:59:49;7.43;;;6.68;;
73113;SDS011;61301;51.956;5.876;2023-05-07T03:02:16;8.07;;;7.28;;
73113;SDS011;61301;51.956;5.876;2023-05-07T03:04:42;9.23;;;6.63;;
73113;SDS011;61301;51.956;5.876;2023-05-07T03:07:08;7.13;;;6.43;;
73113;SDS011;61301;51.956;5.876;2023-05-07T03:09:34;8.85;;;7.95;;
73113;SDS011;61301;51.956;5.876;2023-05-07T03:12:00;7.00;;;5.60;;
73113;SDS011;61301;51.956;5.876;2023-05-07T03:14:27;7.65;;;6.38;;
73113;SDS011;61301;51.956;5.876;2023-05-07T03:16:53;10.40;;;6.80;;
73113;SDS011;61301;51.956;5.876;2023-05-07T03:19:19;8.57;;;7.38;;
73113;SDS011;61301;51.956;5.876;2023-05-07T03:21:45;7.40;;;6.70;;
73113;SDS011;61301;51.956;5.876;2023-05-07T03:24:11;5.70;;;4.22;;
73113;SDS011;61301;51.956;5.876;2023-05-07T03:26:37;7.05;;;5.53;;
73113;SDS011;61301;51.956;5.876;2023-05-07T03:29:03;6.30;;;5.70;;
73113;SDS011;61301;51.956;5.876;2023-05-07T03:31:29;8.85;;;6.80;;
73113;SDS011;61301;51.956;5.876;2023-05-07T03:33:56;7.38;;;6.60;;
73113;SDS011;61301;51.956;5.876;2023-05-07T03:36:23;5.78;;;4.70;;
73113;SDS011;61301;51.956;5.876;2023-05-07T03:38:52;9.35;;;8.18;;
73113;SDS011;61301;51.956;5.876;2023-05-07T03:41:22;8.13;;;7.22;;
73113;SDS011;61301;51.956;5.876;2023-05-07T03:43:48;9.45;;;7.93;;
73113;SDS011;61301;51.956;5.876;2023-05-07T03:46:14;7.47;;;5.03;;
73113;SDS011;61301;51.956;5.876;2023-05-07T03:48:41;8.25;;;7.20;;
73113;SDS011;61301;51.956;5.876;2023-05-07T03:51:07;6.75;;;6.03;;
73113;SDS011;61301;51.956;5.876;2023-05-07T03:53:33;6.90;;;6.22;;
73113;SDS011;61301;51.956;5.876;2023-05-07T03:56:00;7.43;;;6.63;;
73113;SDS011;61301;51.956;5.876;2023-05-07T03:58:29;6.88;;;5.43;;
73113;SDS011;61301;51.956;5.876;2023-05-07T04:00:58;9.40;;;8.50;;
73113;SDS011;61301;51.956;5.876;2023-05-07T04:03:27;9.10;;;7.10;;
73113;SDS011;61301;51.956;5.876;2023-05-07T04:05:56;12.00;;;8.60;;
73113;SDS011;61301;51.956;5.876;2023-05-07T04:08:23;10.13;;;9.10;;
73113;SDS011;61301;51.956;5.876;2023-05-07T04:10:56;8.40;;;7.47;;
73113;SDS011;61301;51.956;5.876;2023-05-07T04:13:23;6.72;;;6.05;;
73113;SDS011;61301;51.956;5.876;2023-05-07T04:15:51;6.03;;;5.43;;
73113;SDS011;61301;51.956;5.876;2023-05-07T04:18:18;7.97;;;6.15;;
73113;SDS011;61301;51.956;5.876;2023-05-07T04:20:49;6.97;;;5.75;;
73113;SDS011;61301;51.956;5.876;2023-05-07T04:23:15;8.27;;;7.47;;
73113;SDS011;61301;51.956;5.876;2023-05-07T04:25:42;10.18;;;9.00;;
73113;SDS011;61301;51.956;5.876;2023-05-07T04:28:22;9.43;;;8.45;;
73113;SDS011;61301;51.956;5.876;2023-05-07T04:30:50;10.43;;;8.93;;
73113;SDS011;61301;51.956;5.876;2023-05-07T04:33:16;8.23;;;7.40;;
73113;SDS011;61301;51.956;5.876;2023-05-07T04:35:44;13.77;;;9.75;;
73113;SDS011;61301;51.956;5.876;2023-05-07T04:38:10;9.18;;;8.27;;
73113;SDS011;61301;51.956;5.876;2023-05-07T04:40:36;12.65;;;11.10;;
73113;SDS011;61301;51.956;5.876;2023-05-07T04:43:03;11.35;;;10.25;;
73113;SDS011;61301;51.956;5.876;2023-05-07T04:45:33;14.75;;;13.35;;
73113;SDS011;61301;51.956;5.876;2023-05-07T04:47:59;13.70;;;12.10;;
73113;SDS011;61301;51.956;5.876;2023-05-07T04:50:25;11.48;;;10.38;;
73113;SDS011;61301;51.956;5.876;2023-05-07T04:52:55;12.52;;;11.25;;
73113;SDS011;61301;51.956;5.876;2023-05-07T04:55:23;10.80;;;9.70;;
73113;SDS011;61301;51.956;5.876;2023-05-07T04:57:49;11.70;;;10.50;;
73113;SDS011;61301;51.956;5.876;2023-05-07T05:00:16;11.48;;;10.05;;
73113;SDS011;61301;51.956;5.876;2023-05-07T05:02:45;9.20;;;8.30;;
73113;SDS011;61301;51.956;5.876;2023-05-07T05:05:15;11.52;;;8.13;;
73113;SDS011;61301;51.956;5.876;2023-05-07T05:07:41;10.13;;;8.85;;
73113;SDS011;61301;51.956;5.876;2023-05-07T05:10:08;7.90;;;6.25;;
73113;SDS011;61301;51.956;5.876;2023-05-07T05:12:37;7.22;;;6.40;;
73113;SDS011;61301;51.956;5.876;2023-05-07T05:15:04;8.77;;;7.97;;
73113;SDS011;61301;51.956;5.876;2023-05-07T05:17:31;10.07;;;8.98;;
73113;SDS011;61301;51.956;5.876;2023-05-07T05:19:58;8.30;;;7.60;;
73113;SDS011;61301;51.956;5.876;2023-05-07T05:22:24;8.45;;;7.65;;
73113;SDS011;61301;51.956;5.876;2023-05-07T05:24:51;11.15;;;8.40;;
73113;SDS011;61301;51.956;5.876;2023-05-07T05:27:17;8.20;;;7.43;;
73113;SDS011;61301;51.956;5.876;2023-05-07T05:29:46;9.02;;;7.85;;
73113;SDS011;61301;51.956;5.876;2023-05-07T05:32:12;9.85;;;8.85;;
73113;SDS011;61301;51.956;5.876;2023-05-07T05:34:38;9.27;;;8.30;;
73113;SDS011;61301;51.956;5.876;2023-05-07T05:37:05;10.10;;;9.10;;
73113;SDS011;61301;51.956;5.876;2023-05-07T05:39:31;9.88;;;8.98;;
73113;SDS011;61301;51.956;5.876;2023-05-07T05:41:58;10.68;;;8.95;;
73113;SDS011;61301;51.956;5.876;2023-05-07T05:44:24;8.60;;;7.63;;
73113;SDS011;61301;51.956;5.876;2023-05-07T05:46:51;8.55;;;7.45;;
73113;SDS011;61301;51.956;5.876;2023-05-07T05:49:17;11.13;;;10.13;;
73113;SDS011;61301;51.956;5.876;2023-05-07T05:51:44;10.63;;;8.52;;
73113;SDS011;61301;51.956;5.876;2023-05-07T05:54:11;9.43;;;8.48;;
73113;SDS011;61301;51.956;5.876;2023-05-07T05:56:37;11.27;;;10.13;;
73113;SDS011;61301;51.956;5.876;2023-05-07T05:59:04;9.90;;;8.90;;
73113;SDS011;61301;51.956;5.876;2023-05-07T06:01:30;10.02;;;9.13;;
73113;SDS011;61301;51.956;5.876;2023-05-07T06:03:59;9.02;;;8.13;;
73113;SDS011;61301;51.956;5.876;2023-05-07T06:06:25;10.73;;;8.90;;
73113;SDS011;61301;51.956;5.876;2023-05-07T06:08:51;11.30;;;8.55;;
73113;SDS011;61301;51.956;5.876;2023-05-07T06:11:23;11.60;;;9.48;;
73113;SDS011;61301;51.956;5.876;2023-05-07T06:13:50;9.63;;;8.63;;
73113;SDS011;61301;51.956;5.876;2023-05-07T06:16:16;11.57;;;10.48;;
73113;SDS011;61301;51.956;5.876;2023-05-07T06:18:43;10.00;;;9.10;;
73113;SDS011;61301;51.956;5.876;2023-05-07T06:21:13;10.30;;;9.25;;
73113;SDS011;61301;51.956;5.876;2023-05-07T06:23:39;8.65;;;7.75;;
73113;SDS011;61301;51.956;5.876;2023-05-07T06:26:06;9.55;;;8.68;;
73113;SDS011;61301;51.956;5.876;2023-05-07T06:28:38;8.90;;;7.75;;
73113;SDS011;61301;51.956;5.876;2023-05-07T06:31:12;8.95;;;8.13;;
73113;SDS011;61301;51.956;5.876;2023-05-07T06:33:39;9.38;;;8.48;;
73113;SDS011;61301;51.956;5.876;2023-05-07T06:36:05;9.18;;;8.23;;
73113;SDS011;61301;51.956;5.876;2023-05-07T06:38:32;11.43;;;10.32;;
73113;SDS011;61301;51.956;5.876;2023-05-07T06:40:58;11.25;;;10.13;;
73113;SDS011;61301;51.956;5.876;2023-05-07T06:43:27;9.57;;;8.57;;
73113;SDS011;61301;51.956;5.876;2023-05-07T06:45:56;11.85;;;10.55;;
73113;SDS011;61301;51.956;5.876;2023-05-07T06:48:22;11.88;;;10.80;;
73113;SDS011;61301;51.956;5.876;2023-05-07T06:50:55;12.10;;;10.80;;
73113;SDS011;61301;51.956;5.876;2023-05-07T06:53:23;10.43;;;9.48;;
73113;SDS011;61301;51.956;5.876;2023-05-07T06:55:50;12.52;;;10.32;;
73113;SDS011;61301;51.956;5.876;2023-05-07T06:58:19;14.13;;;12.57;;
73113;SDS011;61301;51.956;5.876;2023-05-07T07:00:45;12.05;;;10.95;;
73113;SDS011;61301;51.956;5.876;2023-05-07T07:03:12;13.20;;;12.00;;
73113;SDS011;61301;51.956;5.876;2023-05-07T07:05:40;14.43;;;13.10;;
73113;SDS011;61301;51.956;5.876;2023-05-07T07:08:07;15.38;;;13.88;;
73113;SDS011;61301;51.956;5.876;2023-05-07T07:10:33;12.80;;;11.70;;
73113;SDS011;61301;51.956;5.876;2023-05-07T07:13:00;13.75;;;12.48;;
73113;SDS011;61301;51.956;5.876;2023-05-07T07:15:27;16.23;;;14.52;;
73113;SDS011;61301;51.956;5.876;2023-05-07T07:17:54;17.00;;;15.32;;
73113;SDS011;61301;51.956;5.876;2023-05-07T07:20:21;17.00;;;15.40;;
73113;SDS011;61301;51.956;5.876;2023-05-07T07:22:48;12.82;;;11.63;;
73113;SDS011;61301;51.956;5.876;2023-05-07T07:25:16;16.50;;;15.00;;
73113;SDS011;61301;51.956;5.876;2023-05-07T07:27:42;17.40;;;15.65;;
73113;SDS011;61301;51.956;5.876;2023-05-07T07:30:09;16.83;;;15.32;;
73113;SDS011;61301;51.956;5.876;2023-05-07T07:32:37;13.85;;;12.45;;
73113;SDS011;61301;51.956;5.876;2023-05-07T07:35:04;17.38;;;15.68;;
73113;SDS011;61301;51.956;5.876;2023-05-07T07:37:31;16.35;;;14.63;;
73113;SDS011;61301;51.956;5.876;2023-05-07T07:39:58;14.80;;;13.40;;
73113;SDS011;61301;51.956;5.876;2023-05-07T07:42:24;15.70;;;13.77;;
73113;SDS011;61301;51.956;5.876;2023-05-07T07:44:51;15.60;;;14.13;;
73113;SDS011;61301;51.956;5.876;2023-05-07T07:47:21;17.67;;;15.88;;
73113;SDS011;61301;51.956;5.876;2023-05-07T07:49:49;17.70;;;15.95;;
73113;SDS011;61301;51.956;5.876;2023-05-07T07:52:15;17.20;;;14.18;;
73113;SDS011;61301;51.956;5.876;2023-05-07T07:54:44;15.13;;;13.52;;
73113;SDS011;61301;51.956;5.876;2023-05-07T07:57:10;19.52;;;15.57;;
73113;SDS011;61301;51.956;5.876;2023-05-07T07:59:36;16.67;;;15.07;;
73113;SDS011;61301;51.956;5.876;2023-05-07T08:02:06;16.95;;;14.10;;
73113;SDS011;61301;51.956;5.876;2023-05-07T08:04:34;17.88;;;16.13;;
73113;SDS011;61301;51.956;5.876;2023-05-07T08:07:03;17.33;;;15.40;;
73113;SDS011;61301;51.956;5.876;2023-05-07T08:09:32;17.98;;;16.00;;
73113;SDS011;61301;51.956;5.876;2023-05-07T08:11:59;13.65;;;12.27;;
73113;SDS011;61301;51.956;5.876;2023-05-07T08:14:28;8.93;;;8.02;;
73113;SDS011;61301;51.956;5.876;2023-05-07T08:16:54;13.57;;;12.18;;
73113;SDS011;61301;51.956;5.876;2023-05-07T08:19:21;15.32;;;13.73;;
73113;SDS011;61301;51.956;5.876;2023-05-07T08:21:48;15.48;;;13.93;;
73113;SDS011;61301;51.956;5.876;2023-05-07T08:24:16;14.77;;;13.25;;
73113;SDS011;61301;51.956;5.876;2023-05-07T08:26:43;17.58;;;15.57;;
73113;SDS011;61301;51.956;5.876;2023-05-07T08:29:10;16.50;;;14.23;;
73113;SDS011;61301;51.956;5.876;2023-05-07T08:31:37;16.40;;;14.65;;
73113;SDS011;61301;51.956;5.876;2023-05-07T08:34:05;17.85;;;15.98;;
73113;SDS011;61301;51.956;5.876;2023-05-07T08:36:33;15.60;;;14.00;;
73113;SDS011;61301;51.956;5.876;2023-05-07T08:38:59;15.52;;;12.75;;
73113;SDS011;61301;51.956;5.876;2023-05-07T08:41:25;16.42;;;14.18;;
73113;SDS011;61301;51.956;5.876;2023-05-07T08:43:52;16.85;;;15.13;;
73113;SDS011;61301;51.956;5.876;2023-05-07T08:46:23;18.38;;;15.70;;
73113;SDS011;61301;51.956;5.876;2023-05-07T08:48:54;13.45;;;12.05;;
73113;SDS011;61301;51.956;5.876;2023-05-07T08:51:20;19.75;;;17.67;;
73113;SDS011;61301;51.956;5.876;2023-05-07T08:53:48;13.27;;;11.88;;
73113;SDS011;61301;51.956;5.876;2023-05-07T08:56:21;13.98;;;12.48;;
73113;SDS011;61301;51.956;5.876;2023-05-07T08:58:48;14.60;;;12.68;;
73113;SDS011;61301;51.956;5.876;2023-05-07T09:01:15;15.82;;;10.68;;
73113;SDS011;61301;51.956;5.876;2023-05-07T09:03:44;15.63;;;14.02;;
73113;SDS011;61301;51.956;5.876;2023-05-07T09:06:12;13.80;;;11.65;;
73113;SDS011;61301;51.956;5.876;2023-05-07T09:08:38;15.95;;;13.65;;
73113;SDS011;61301;51.956;5.876;2023-05-07T09:11:06;14.93;;;13.52;;
73113;SDS011;61301;51.956;5.876;2023-05-07T09:13:32;17.65;;;15.75;;
73113;SDS011;61301;51.956;5.876;2023-05-07T09:16:13;13.65;;;12.25;;
73113;SDS011;61301;51.956;5.876;2023-05-07T09:18:42;13.63;;;12.23;;
73113;SDS011;61301;51.956;5.876;2023-05-07T09:21:10;15.20;;;13.27;;
73113;SDS011;61301;51.956;5.876;2023-05-07T09:23:40;14.95;;;13.40;;
73113;SDS011;61301;51.956;5.876;2023-05-07T09:26:07;15.27;;;13.38;;
73113;SDS011;61301;51.956;5.876;2023-05-07T09:28:39;17.00;;;14.05;;
73113;SDS011;61301;51.956;5.876;2023-05-07T09:31:11;14.27;;;12.88;;
73113;SDS011;61301;51.956;5.876;2023-05-07T09:33:38;14.23;;;12.75;;
73113;SDS011;61301;51.956;5.876;2023-05-07T09:36:06;16.15;;;14.13;;
73113;SDS011;61301;51.956;5.876;2023-05-07T09:38:35;13.98;;;12.50;;
73113;SDS011;61301;51.956;5.876;2023-05-07T09:41:03;14.48;;;12.95;;
73113;SDS011;61301;51.956;5.876;2023-05-07T09:43:42;17.05;;;15.00;;
73113;SDS011;61301;51.956;5.876;2023-05-07T09:46:12;13.63;;;12.20;;
73113;SDS011;61301;51.956;5.876;2023-05-07T09:48:42;12.88;;;10.25;;
73113;SDS011;61301;51.956;5.876;2023-05-07T09:51:15;12.07;;;10.68;;
73113;SDS011;61301;51.956;5.876;2023-05-07T09:53:48;16.40;;;13.43;;
73113;SDS011;61301;51.956;5.876;2023-05-07T09:56:17;14.40;;;12.88;;
73113;SDS011;61301;51.956;5.876;2023-05-07T09:58:44;14.13;;;12.70;;
73113;SDS011;61301;51.956;5.876;2023-05-07T10:01:12;14.27;;;12.52;;
73113;SDS011;61301;51.956;5.876;2023-05-07T10:03:40;15.57;;;11.05;;
73113;SDS011;61301;51.956;5.876;2023-05-07T10:06:09;13.38;;;11.88;;
73113;SDS011;61301;51.956;5.876;2023-05-07T10:08:36;13.25;;;11.88;;
73113;SDS011;61301;51.956;5.876;2023-05-07T10:11:04;11.20;;;9.52;;
73113;SDS011;61301;51.956;5.876;2023-05-07T10:13:34;13.63;;;12.23;;
73113;SDS011;61301;51.956;5.876;2023-05-07T10:16:04;15.63;;;13.85;;
73113;SDS011;61301;51.956;5.876;2023-05-07T10:18:37;13.35;;;10.25;;
73113;SDS011;61301;51.956;5.876;2023-05-07T10:21:11;13.57;;;11.73;;
73113;SDS011;61301;51.956;5.876;2023-05-07T10:23:50;11.68;;;10.57;;
73113;SDS011;61301;51.956;5.876;2023-05-07T10:26:25;8.90;;;8.00;;
73113;SDS011;61301;51.956;5.876;2023-05-07T10:28:54;11.40;;;10.13;;
73113;SDS011;61301;51.956;5.876;2023-05-07T10:34:20;9.10;;;8.05;;
73113;SDS011;61301;51.956;5.876;2023-05-07T10:36:50;13.85;;;11.82;;
73113;SDS011;61301;51.956;5.876;2023-05-07T10:39:17;12.77;;;11.48;;
73113;SDS011;61301;51.956;5.876;2023-05-07T10:41:46;11.30;;;10.15;;
73113;SDS011;61301;51.956;5.876;2023-05-07T10:44:19;9.88;;;8.90;;
73113;SDS011;61301;51.956;5.876;2023-05-07T10:47:03;9.57;;;8.57;;
73113;SDS011;61301;51.956;5.876;2023-05-07T10:49:35;8.88;;;8.07;;
73113;SDS011;61301;51.956;5.876;2023-05-07T10:52:19;11.05;;;9.80;;
73113;SDS011;61301;51.956;5.876;2023-05-07T11:00:49;10.13;;;8.60;;
73113;SDS011;61301;51.956;5.876;2023-05-07T11:03:25;10.93;;;9.82;;
73113;SDS011;61301;51.956;5.876;2023-05-07T11:06:09;9.40;;;8.40;;
73113;SDS011;61301;51.956;5.876;2023-05-07T11:09:02;10.73;;;9.55;;
73113;SDS011;61301;51.956;5.876;2023-05-07T11:11:50;10.60;;;9.60;;
73113;SDS011;61301;51.956;5.876;2023-05-07T11:17:10;10.27;;;8.65;;
73113;SDS011;61301;51.956;5.876;2023-05-07T11:19:50;10.15;;;9.15;;
73113;SDS011;61301;51.956;5.876;2023-05-07T11:22:42;9.38;;;8.48;;
73113;SDS011;61301;51.956;5.876;2023-05-07T11:25:17;10.02;;;9.02;;
73113;SDS011;61301;51.956;5.876;2023-05-07T11:27:45;9.18;;;8.30;;
73113;SDS011;61301;51.956;5.876;2023-05-07T11:30:18;9.63;;;8.60;;
73113;SDS011;61301;51.956;5.876;2023-05-07T11:32:48;11.60;;;8.38;;
73113;SDS011;61301;51.956;5.876;2023-05-07T11:35:16;10.38;;;9.23;;
73113;SDS011;61301;51.956;5.876;2023-05-07T11:37:45;6.70;;;5.72;;
73113;SDS011;61301;51.956;5.876;2023-05-07T11:40:12;7.28;;;6.60;;
73113;SDS011;61301;51.956;5.876;2023-05-07T11:42:39;9.63;;;8.50;;
73113;SDS011;61301;51.956;5.876;2023-05-07T11:45:08;9.20;;;6.22;;
73113;SDS011;61301;51.956;5.876;2023-05-07T11:47:34;10.52;;;8.95;;
73113;SDS011;61301;51.956;5.876;2023-05-07T11:50:04;9.77;;;8.82;;
73113;SDS011;61301;51.956;5.876;2023-05-07T11:52:32;9.18;;;7.63;;
73113;SDS011;61301;51.956;5.876;2023-05-07T11:55:00;10.02;;;9.02;;
73113;SDS011;61301;51.956;5.876;2023-05-07T11:57:27;8.73;;;7.93;;
73113;SDS011;61301;51.956;5.876;2023-05-07T11:59:54;7.10;;;6.40;;
73113;SDS011;61301;51.956;5.876;2023-05-07T12:02:24;7.78;;;6.43;;
73113;SDS011;61301;51.956;5.876;2023-05-07T12:04:51;8.70;;;7.82;;
73113;SDS011;61301;51.956;5.876;2023-05-07T12:07:18;5.30;;;4.82;;
73113;SDS011;61301;51.956;5.876;2023-05-07T12:09:44;6.28;;;5.32;;
73113;SDS011;61301;51.956;5.876;2023-05-07T12:12:11;10.18;;;7.47;;
73113;SDS011;61301;51.956;5.876;2023-05-07T12:14:44;7.68;;;6.43;;
73113;SDS011;61301;51.956;5.876;2023-05-07T12:17:11;8.02;;;6.45;;
73113;SDS011;61301;51.956;5.876;2023-05-07T12:19:40;6.60;;;5.68;;
73113;SDS011;61301;51.956;5.876;2023-05-07T12:22:08;10.40;;;7.85;;
73113;SDS011;61301;51.956;5.876;2023-05-07T12:24:47;9.60;;;8.60;;
73113;SDS011;61301;51.956;5.876;2023-05-07T12:27:14;7.85;;;6.70;;
73113;SDS011;61301;51.956;5.876;2023-05-07T12:29:48;6.53;;;5.53;;
73113;SDS011;61301;51.956;5.876;2023-05-07T12:32:18;5.82;;;5.15;;
73113;SDS011;61301;51.956;5.876;2023-05-07T12:34:46;7.63;;;6.93;;
73113;SDS011;61301;51.956;5.876;2023-05-07T12:37:15;8.68;;;6.93;;
73113;SDS011;61301;51.956;5.876;2023-05-07T12:39:44;5.72;;;5.15;;
73113;SDS011;61301;51.956;5.876;2023-05-07T12:42:16;5.78;;;4.55;;
73113;SDS011;61301;51.956;5.876;2023-05-07T12:44:45;6.60;;;5.85;;
73113;SDS011;61301;51.956;5.876;2023-05-07T12:47:12;8.85;;;8.00;;
73113;SDS011;61301;51.956;5.876;2023-05-07T12:49:38;8.15;;;5.70;;
73113;SDS011;61301;51.956;5.876;2023-05-07T12:52:05;7.72;;;6.40;;
73113;SDS011;61301;51.956;5.876;2023-05-07T12:54:32;5.30;;;4.78;;
73113;SDS011;61301;51.956;5.876;2023-05-07T12:59:32;9.30;;;8.32;;
73113;SDS011;61301;51.956;5.876;2023-05-07T13:02:02;6.38;;;5.78;;
73113;SDS011;61301;51.956;5.876;2023-05-07T13:04:28;5.68;;;5.10;;
73113;SDS011;61301;51.956;5.876;2023-05-07T13:06:54;5.63;;;4.93;;
73113;SDS011;61301;51.956;5.876;2023-05-07T13:09:20;7.65;;;6.20;;
73113;SDS011;61301;51.956;5.876;2023-05-07T13:11:45;10.52;;;7.32;;
73113;SDS011;61301;51.956;5.876;2023-05-07T13:14:15;6.80;;;6.10;;
73113;SDS011;61301;51.956;5.876;2023-05-07T13:16:41;7.57;;;6.25;;
73113;SDS011;61301;51.956;5.876;2023-05-07T13:19:07;7.00;;;6.30;;
73113;SDS011;61301;51.956;5.876;2023-05-07T13:21:33;7.22;;;6.53;;
73113;SDS011;61301;51.956;5.876;2023-05-07T13:23:59;8.23;;;7.43;;
73113;SDS011;61301;51.956;5.876;2023-05-07T13:26:25;7.60;;;6.82;;
73113;SDS011;61301;51.956;5.876;2023-05-07T13:28:55;6.38;;;5.65;;
73113;SDS011;61301;51.956;5.876;2023-05-07T13:31:21;7.78;;;6.88;;
73113;SDS011;61301;51.956;5.876;2023-05-07T13:33:50;8.68;;;6.78;;
73113;SDS011;61301;51.956;5.876;2023-05-07T13:36:16;7.43;;;5.90;;
73113;SDS011;61301;51.956;5.876;2023-05-07T13:38:42;8.88;;;6.65;;
73113;SDS011;61301;51.956;5.876;2023-05-07T13:41:08;6.40;;;5.63;;
73113;SDS011;61301;51.956;5.876;2023-05-07T13:43:34;8.13;;;6.15;;
73113;SDS011;61301;51.956;5.876;2023-05-07T13:46:00;8.63;;;5.88;;
73113;SDS011;61301;51.956;5.876;2023-05-07T13:48:26;5.53;;;5.03;;
73113;SDS011;61301;51.956;5.876;2023-05-07T13:50:54;8.95;;;6.55;;
73113;SDS011;61301;51.956;5.876;2023-05-07T13:53:20;6.45;;;5.55;;
73113;SDS011;61301;51.956;5.876;2023-05-07T13:55:46;7.05;;;6.35;;
73113;SDS011;61301;51.956;5.876;2023-05-07T13:58:12;6.35;;;4.30;;
73113;SDS011;61301;51.956;5.876;2023-05-07T14:00:38;6.00;;;4.30;;
73113;SDS011;61301;51.956;5.876;2023-05-07T14:03:04;7.47;;;6.32;;
73113;SDS011;61301;51.956;5.876;2023-05-07T14:05:30;5.57;;;4.80;;
73113;SDS011;61301;51.956;5.876;2023-05-07T14:07:57;6.70;;;5.38;;
73113;SDS011;61301;51.956;5.876;2023-05-07T14:10:23;5.25;;;4.75;;
73113;SDS011;61301;51.956;5.876;2023-05-07T14:12:50;5.00;;;4.18;;
73113;SDS011;61301;51.956;5.876;2023-05-07T14:15:16;6.60;;;5.70;;
73113;SDS011;61301;51.956;5.876;2023-05-07T14:17:42;5.63;;;5.13;;
73113;SDS011;61301;51.956;5.876;2023-05-07T14:20:09;5.88;;;4.60;;
73113;SDS011;61301;51.956;5.876;2023-05-07T14:22:36;3.90;;;3.50;;
73113;SDS011;61301;51.956;5.876;2023-05-07T14:25:02;6.00;;;5.00;;
73113;SDS011;61301;51.956;5.876;2023-05-07T14:27:28;6.93;;;5.20;;
73113;SDS011;61301;51.956;5.876;2023-05-07T14:29:54;5.72;;;4.13;;
73113;SDS011;61301;51.956;5.876;2023-05-07T14:32:21;4.93;;;3.97;;
73113;SDS011;61301;51.956;5.876;2023-05-07T14:34:47;5.53;;;4.78;;
73113;SDS011;61301;51.956;5.876;2023-05-07T14:37:13;5.85;;;5.00;;
73113;SDS011;61301;51.956;5.876;2023-05-07T14:39:39;7.05;;;6.03;;
73113;SDS011;61301;51.956;5.876;2023-05-07T14:42:06;6.93;;;5.78;;
73113;SDS011;61301;51.956;5.876;2023-05-07T14:44:34;6.78;;;6.00;;
73113;SDS011;61301;51.956;5.876;2023-05-07T14:47:01;9.10;;;6.07;;
73113;SDS011;61301;51.956;5.876;2023-05-07T14:49:27;7.35;;;5.65;;
73113;SDS011;61301;51.956;5.876;2023-05-07T14:51:53;7.15;;;6.45;;
73113;SDS011;61301;51.956;5.876;2023-05-07T14:54:19;6.30;;;4.97;;
73113;SDS011;61301;51.956;5.876;2023-05-07T14:56:45;7.00;;;6.07;;